Time;durP1;ratioP1;P1;durP2;ratioP2;P2;SDS_P1;SDS_P2;PMS_P1;PMS_P2;Temp;Humidity;BMP_temperature;BMP_pressure;BME280_temperature;BME280_humidity;BME280_pressure;Samples;Min_cycle;Max_cycle;Signal;HPM_P1;HPM_P2
2023/05/31 00:00:20;;;;;;;2.78;1.85;;;;;;;;;;4995075;28;20018;-75
2023/05/31 00:02:45;;;;;;;3.85;2.20;;;;;;;;;;4972091;28;20026;-75
2023/05/31 00:05:11;;;;;;;3.55;2.10;;;;;;;;;;4988021;28;20105;-74
2023/05/31 00:07:36;;;;;;;4.32;2.10;;;;;;;;;;4978489;28;20037;-73
2023/05/31 00:10:02;;;;;;;4.70;2.42;;;;;;;;;;4996813;28;20030;-74
2023/05/31 00:12:27;;;;;;;3.00;1.95;;;;;;;;;;4988940;28;20026;-75
2023/05/31 00:14:52;;;;;;;3.08;2.00;;;;;;;;;;4977404;28;20030;-74
2023/05/31 00:17:18;;;;;;;3.85;2.25;;;;;;;;;;4976588;28;20053;-74
2023/05/31 00:19:43;;;;;;;4.00;2.20;;;;;;;;;;4990845;28;20032;-74
2023/05/31 00:22:10;;;;;;;3.85;2.17;;;;;;;;;;4976092;28;20030;-73
2023/05/31 00:24:35;;;;;;;3.15;1.92;;;;;;;;;;4986975;28;20105;-73
2023/05/31 00:27:01;;;;;;;3.08;2.00;;;;;;;;;;4976813;28;20137;-73
2023/05/31 00:29:27;;;;;;;3.20;2.03;;;;;;;;;;4973384;28;20033;-75
2023/05/31 00:31:52;;;;;;;3.70;2.00;;;;;;;;;;4975299;28;20030;-73
2023/05/31 00:34:18;;;;;;;4.43;2.13;;;;;;;;;;4983553;28;20038;-74
2023/05/31 00:36:43;;;;;;;3.67;2.25;;;;;;;;;;4985433;28;20501;-74
2023/05/31 00:39:10;;;;;;;3.53;2.30;;;;;;;;;;4975500;28;20023;-76
2023/05/31 00:41:35;;;;;;;3.38;2.10;;;;;;;;;;4984569;28;20399;-76
2023/05/31 00:44:00;;;;;;;3.88;2.28;;;;;;;;;;4998212;28;20042;-74
2023/05/31 00:46:28;;;;;;;3.15;1.90;;;;;;;;;;4979977;28;20517;-73
2023/05/31 00:48:55;;;;;;;3.60;2.08;;;;;;;;;;4985426;28;20034;-75
2023/05/31 00:51:20;;;;;;;3.55;2.30;;;;;;;;;;4984159;28;20022;-74
2023/05/31 00:53:47;;;;;;;3.63;2.35;;;;;;;;;;4985368;28;20033;-76
2023/05/31 00:56:13;;;;;;;3.97;2.13;;;;;;;;;;4973469;28;20032;-74
2023/05/31 00:58:40;;;;;;;5.70;2.55;;;;;;;;;;4972244;28;20042;-75
2023/05/31 01:01:07;;;;;;;3.58;1.90;;;;;;;;;;4986158;28;20030;-74
2023/05/31 01:03:33;;;;;;;3.60;2.08;;;;;;;;;;4976970;28;20089;-74
2023/05/31 01:06:00;;;;;;;3.20;1.92;;;;;;;;;;4990772;28;20388;-73
2023/05/31 01:08:26;;;;;;;5.47;2.30;;;;;;;;;;4993528;28;20061;-74
2023/05/31 01:10:53;;;;;;;5.00;2.13;;;;;;;;;;4989532;28;20494;-74
2023/05/31 01:13:38;;;;;;;4.85;2.55;;;;;;;;;;4991647;28;20041;-74
2023/05/31 01:16:15;;;;;;;4.28;1.90;;;;;;;;;;4991707;28;20117;-75
2023/05/31 01:18:45;;;;;;;5.18;2.35;;;;;;;;;;4981218;28;20080;-73
2023/05/31 01:21:11;;;;;;;4.63;2.40;;;;;;;;;;4992587;28;20034;-74
2023/05/31 01:24:00;;;;;;;3.63;2.00;;;;;;;;;;4993215;28;20025;-73
2023/05/31 01:26:46;;;;;;;5.13;2.20;;;;;;;;;;4966006;28;20034;-74
2023/05/31 01:29:16;;;;;;;3.78;2.10;;;;;;;;;;4981478;28;20244;-74
2023/05/31 01:31:45;;;;;;;5.25;2.67;;;;;;;;;;4983866;28;20114;-75
2023/05/31 01:34:11;;;;;;;3.58;2.33;;;;;;;;;;4967398;28;20502;-75
2023/05/31 01:36:37;;;;;;;4.55;2.63;;;;;;;;;;4966257;28;20122;-76
2023/05/31 01:39:03;;;;;;;4.20;2.60;;;;;;;;;;4987702;28;20475;-73
2023/05/31 01:41:33;;;;;;;5.07;2.80;;;;;;;;;;4988104;28;20042;-74
2023/05/31 01:44:00;;;;;;;3.50;2.30;;;;;;;;;;4990646;28;20034;-74
2023/05/31 01:46:26;;;;;;;4.68;2.65;;;;;;;;;;4967466;28;20030;-77
2023/05/31 01:48:52;;;;;;;4.40;2.70;;;;;;;;;;4988808;28;20026;-77
2023/05/31 01:51:20;;;;;;;5.50;2.70;;;;;;;;;;4984996;28;20478;-74
2023/05/31 01:53:46;;;;;;;4.32;2.60;;;;;;;;;;4991052;28;20030;-73
2023/05/31 01:56:12;;;;;;;4.55;2.35;;;;;;;;;;4971513;28;20030;-74
2023/05/31 01:58:41;;;;;;;3.85;2.45;;;;;;;;;;4971420;28;20437;-74
2023/05/31 02:01:10;;;;;;;5.45;2.90;;;;;;;;;;4986653;28;20023;-74
2023/05/31 02:03:36;;;;;;;6.65;2.80;;;;;;;;;;4983285;28;20478;-74
2023/05/31 02:06:01;;;;;;;4.38;2.78;;;;;;;;;;4987317;28;20041;-76
2023/05/31 02:08:27;;;;;;;4.80;2.80;;;;;;;;;;4974424;28;20382;-75
2023/05/31 02:10:54;;;;;;;4.30;2.90;;;;;;;;;;4974422;28;20053;-74
2023/05/31 02:13:20;;;;;;;5.47;2.90;;;;;;;;;;4986223;28;20030;-74
2023/05/31 02:15:46;;;;;;;4.72;2.70;;;;;;;;;;4997782;28;20038;-74
2023/05/31 02:18:12;;;;;;;5.55;2.75;;;;;;;;;;4985855;28;20510;-74
2023/05/31 02:20:38;;;;;;;4.93;2.72;;;;;;;;;;4988489;28;20022;-74
2023/05/31 02:23:03;;;;;;;6.30;3.05;;;;;;;;;;4974511;28;20121;-73
2023/05/31 02:25:29;;;;;;;5.20;3.00;;;;;;;;;;4992809;28;20053;-73
2023/05/31 02:27:54;;;;;;;4.80;2.60;;;;;;;;;;4974409;28;20030;-74
2023/05/31 02:30:20;;;;;;;6.10;3.08;;;;;;;;;;4993013;28;20478;-74
2023/05/31 02:32:45;;;;;;;4.68;2.75;;;;;;;;;;4973395;28;20038;-73
2023/05/31 02:35:11;;;;;;;5.85;3.10;;;;;;;;;;4965564;28;20083;-75
2023/05/31 02:37:39;;;;;;;5.95;3.05;;;;;;;;;;4973754;28;20526;-73
2023/05/31 02:40:08;;;;;;;6.35;3.10;;;;;;;;;;4989773;28;20023;-74
2023/05/31 02:42:35;;;;;;;7.15;2.90;;;;;;;;;;4975544;28;20372;-74
2023/05/31 02:45:00;;;;;;;5.18;3.08;;;;;;;;;;4994951;28;20034;-73
2023/05/31 02:47:27;;;;;;;5.78;3.00;;;;;;;;;;4975577;28;20438;-74
2023/05/31 02:49:52;;;;;;;5.15;3.20;;;;;;;;;;4987187;28;20029;-74
2023/05/31 02:52:17;;;;;;;7.15;3.30;;;;;;;;;;4994874;28;20065;-74
2023/05/31 02:54:43;;;;;;;5.60;3.28;;;;;;;;;;4991786;28;20423;-73
2023/05/31 02:57:09;;;;;;;4.97;3.03;;;;;;;;;;4973056;28;20030;-73
2023/05/31 02:59:34;;;;;;;5.53;3.20;;;;;;;;;;4975069;28;20461;-74
2023/05/31 03:02:00;;;;;;;6.03;3.08;;;;;;;;;;4975544;28;20033;-75
2023/05/31 03:04:25;;;;;;;5.93;3.33;;;;;;;;;;4975376;28;20084;-74
2023/05/31 03:06:51;;;;;;;7.75;3.28;;;;;;;;;;4989829;28;20065;-73
2023/05/31 03:09:17;;;;;;;5.43;3.22;;;;;;;;;;4976124;28;20034;-73
2023/05/31 03:11:45;;;;;;;5.50;3.35;;;;;;;;;;4979472;28;20026;-74
2023/05/31 03:14:11;;;;;;;5.90;3.53;;;;;;;;;;4996900;28;20145;-74
2023/05/31 03:16:36;;;;;;;5.68;3.42;;;;;;;;;;4995865;28;20607;-73
2023/05/31 03:19:02;;;;;;;10.48;3.60;;;;;;;;;;4978208;28;20045;-74
2023/05/31 03:21:27;;;;;;;7.70;3.55;;;;;;;;;;4982324;28;20030;-74
2023/05/31 03:23:53;;;;;;;6.30;3.40;;;;;;;;;;5000620;28;20026;-73
2023/05/31 03:26:18;;;;;;;8.38;3.70;;;;;;;;;;4996536;28;20112;-73
2023/05/31 03:28:43;;;;;;;5.43;3.58;;;;;;;;;;4977944;28;20058;-74
2023/05/31 03:31:09;;;;;;;8.30;3.80;;;;;;;;;;4997729;28;20022;-73
2023/05/31 03:33:35;;;;;;;7.00;3.88;;;;;;;;;;4994952;28;20037;-74
2023/05/31 03:36:01;;;;;;;5.65;3.28;;;;;;;;;;4973890;28;20026;-74
2023/05/31 03:38:28;;;;;;;5.88;3.65;;;;;;;;;;4984342;28;20421;-73
2023/05/31 03:40:53;;;;;;;5.60;3.50;;;;;;;;;;4991167;28;20485;-73
2023/05/31 03:43:19;;;;;;;6.55;3.97;;;;;;;;;;4977750;28;20023;-73
2023/05/31 03:45:44;;;;;;;6.85;4.00;;;;;;;;;;4990322;28;20030;-77
2023/05/31 03:48:09;;;;;;;6.70;3.97;;;;;;;;;;4986995;28;20026;-73
2023/05/31 03:50:35;;;;;;;7.63;4.40;;;;;;;;;;4996271;28;20036;-77
2023/05/31 03:53:00;;;;;;;6.40;3.90;;;;;;;;;;4981228;28;20085;-74
2023/05/31 03:55:26;;;;;;;6.68;3.95;;;;;;;;;;4980778;28;20065;-73
2023/05/31 03:57:51;;;;;;;7.15;4.18;;;;;;;;;;4994523;28;20022;-73
2023/05/31 04:00:17;;;;;;;7.40;3.95;;;;;;;;;;4979297;28;20049;-74
2023/05/31 04:02:42;;;;;;;9.43;4.32;;;;;;;;;;4992144;28;20033;-74
2023/05/31 04:05:08;;;;;;;7.50;4.38;;;;;;;;;;4981931;28;20088;-74
2023/05/31 04:07:33;;;;;;;8.80;4.30;;;;;;;;;;4996200;28;20033;-76
2023/05/31 04:09:58;;;;;;;7.15;4.30;;;;;;;;;;4996073;28;20030;-73
2023/05/31 04:12:24;;;;;;;7.97;4.55;;;;;;;;;;4991239;28;20662;-74
2023/05/31 04:14:49;;;;;;;8.43;4.75;;;;;;;;;;4977997;28;20133;-73
2023/05/31 04:17:15;;;;;;;7.85;4.38;;;;;;;;;;4993608;28;20034;-73
2023/05/31 04:19:40;;;;;;;9.02;4.68;;;;;;;;;;4977013;28;20475;-74
2023/05/31 04:22:06;;;;;;;7.70;4.10;;;;;;;;;;4974675;28;20026;-73
2023/05/31 04:24:32;;;;;;;6.88;4.18;;;;;;;;;;4980787;28;20025;-73
2023/05/31 04:26:57;;;;;;;8.15;4.53;;;;;;;;;;4974828;28;20159;-74
2023/05/31 04:29:25;;;;;;;8.45;4.60;;;;;;;;;;4975531;28;20026;-74
2023/05/31 04:31:51;;;;;;;10.32;4.57;;;;;;;;;;4973550;28;20034;-74
2023/05/31 04:34:17;;;;;;;8.05;4.68;;;;;;;;;;4995163;28;20526;-75
2023/05/31 04:36:44;;;;;;;7.95;4.60;;;;;;;;;;4968824;28;20026;-73
2023/05/31 04:39:14;;;;;;;9.93;5.22;;;;;;;;;;4989979;28;20060;-74
2023/05/31 04:41:39;;;;;;;7.45;4.57;;;;;;;;;;4990413;28;20551;-73
2023/05/31 04:44:05;;;;;;;9.60;5.38;;;;;;;;;;4993091;28;20117;-75
2023/05/31 04:46:31;;;;;;;7.18;4.50;;;;;;;;;;5000319;28;20042;-76
2023/05/31 04:48:57;;;;;;;7.30;4.82;;;;;;;;;;4983791;28;20113;-74
2023/05/31 04:51:23;;;;;;;8.27;4.85;;;;;;;;;;4990211;28;20117;-76
2023/05/31 04:53:48;;;;;;;8.38;4.50;;;;;;;;;;4974182;28;20051;-77
2023/05/31 04:56:14;;;;;;;8.25;5.10;;;;;;;;;;4994220;28;20426;-77
2023/05/31 04:58:40;;;;;;;9.55;5.82;;;;;;;;;;4998396;28;20026;-77
2023/05/31 05:01:06;;;;;;;8.65;5.25;;;;;;;;;;4993921;28;20030;-76
2023/05/31 05:03:32;;;;;;;8.60;5.22;;;;;;;;;;4974866;28;20080;-77
2023/05/31 05:06:11;;;;;;;8.63;5.03;;;;;;;;;;4973400;28;20061;-77
2023/05/31 05:08:36;;;;;;;9.75;5.50;;;;;;;;;;4994528;28;20445;-77
2023/05/31 05:11:02;;;;;;;11.80;5.53;;;;;;;;;;4971449;28;20030;-77
2023/05/31 05:13:28;;;;;;;9.52;5.28;;;;;;;;;;4995862;28;20084;-77
2023/05/31 05:15:53;;;;;;;10.20;5.82;;;;;;;;;;4969961;28;20121;-77
2023/05/31 05:18:18;;;;;;;10.32;6.00;;;;;;;;;;4993072;28;20026;-77
2023/05/31 05:20:44;;;;;;;9.00;5.63;;;;;;;;;;4969226;28;20069;-77
2023/05/31 05:23:09;;;;;;;9.38;5.78;;;;;;;;;;4990223;28;20113;-77
2023/05/31 05:25:35;;;;;;;9.52;5.35;;;;;;;;;;4973432;28;20029;-77
2023/05/31 05:28:00;;;;;;;10.88;6.00;;;;;;;;;;4971655;28;20030;-77
2023/05/31 05:30:26;;;;;;;9.18;5.90;;;;;;;;;;4983069;28;20033;-76
2023/05/31 05:32:51;;;;;;;9.68;5.90;;;;;;;;;;4964507;28;20034;-77
2023/05/31 05:35:16;;;;;;;9.82;5.63;;;;;;;;;;4967710;28;20278;-77
2023/05/31 05:37:42;;;;;;;9.80;5.88;;;;;;;;;;4966074;28;20459;-76
2023/05/31 05:40:08;;;;;;;10.95;5.75;;;;;;;;;;4964922;28;20026;-77
2023/05/31 05:42:36;;;;;;;8.45;5.53;;;;;;;;;;4972390;28;20041;-77
2023/05/31 05:45:06;;;;;;;8.68;5.53;;;;;;;;;;4981211;28;20041;-77
2023/05/31 05:47:32;;;;;;;12.65;6.25;;;;;;;;;;4968999;28;20081;-77
2023/05/31 05:49:57;;;;;;;10.35;6.32;;;;;;;;;;4970746;28;20061;-77
2023/05/31 05:52:23;;;;;;;9.52;5.93;;;;;;;;;;4987008;28;20022;-77
2023/05/31 05:54:48;;;;;;;10.15;6.22;;;;;;;;;;4983800;28;20164;-77
2023/05/31 05:57:13;;;;;;;8.70;6.10;;;;;;;;;;4972987;28;20085;-77
2023/05/31 05:59:41;;;;;;;10.70;5.97;;;;;;;;;;4974119;28;20026;-77
2023/05/31 06:02:06;;;;;;;11.50;6.72;;;;;;;;;;4971263;28;20030;-77
2023/05/31 06:04:31;;;;;;;10.07;5.93;;;;;;;;;;4989210;28;20125;-77
2023/05/31 06:06:57;;;;;;;8.88;5.78;;;;;;;;;;4992638;28;20450;-77
2023/05/31 06:09:22;;;;;;;11.65;7.00;;;;;;;;;;4986515;28;20462;-77
2023/05/31 06:11:47;;;;;;;12.95;6.13;;;;;;;;;;4967868;28;20026;-77
2023/05/31 06:14:13;;;;;;;9.52;5.90;;;;;;;;;;4970584;28;20100;-77
2023/05/31 06:16:38;;;;;;;10.63;5.75;;;;;;;;;;4983173;28;20018;-76
2023/05/31 06:19:03;;;;;;;10.45;7.10;;;;;;;;;;4987002;28;20030;-77
2023/05/31 06:21:29;;;;;;;10.25;5.78;;;;;;;;;;4988317;28;20032;-77
2023/05/31 06:23:54;;;;;;;10.35;6.00;;;;;;;;;;4980260;28;20089;-77
2023/05/31 06:26:20;;;;;;;13.13;6.72;;;;;;;;;;4993546;28;20024;-76
2023/05/31 06:28:45;;;;;;;12.00;7.00;;;;;;;;;;4995091;28;20119;-77
2023/05/31 06:31:10;;;;;;;12.13;6.57;;;;;;;;;;4985108;28;20039;-77
2023/05/31 06:33:36;;;;;;;14.20;7.50;;;;;;;;;;4991120;28;20033;-77
2023/05/31 06:36:02;;;;;;;11.23;6.82;;;;;;;;;;4969747;28;20062;-77
2023/05/31 06:38:27;;;;;;;12.32;6.68;;;;;;;;;;4970219;28;20387;-77
2023/05/31 06:40:53;;;;;;;13.35;7.22;;;;;;;;;;4967557;28;20014;-77
2023/05/31 06:43:18;;;;;;;13.13;7.13;;;;;;;;;;4969935;28;20025;-77
2023/05/31 06:45:43;;;;;;;13.60;7.22;;;;;;;;;;4970977;28;20098;-77
2023/05/31 06:48:09;;;;;;;11.55;6.60;;;;;;;;;;4966874;28;20054;-77
2023/05/31 06:50:34;;;;;;;12.05;6.95;;;;;;;;;;4984578;28;20112;-77
2023/05/31 06:53:00;;;;;;;12.02;6.93;;;;;;;;;;4965426;28;20041;-77
2023/05/31 06:55:25;;;;;;;12.20;6.60;;;;;;;;;;4987065;28;20049;-77
2023/05/31 06:57:51;;;;;;;13.38;6.53;;;;;;;;;;4953201;28;20084;-77
2023/05/31 07:00:17;;;;;;;11.55;6.45;;;;;;;;;;4983891;28;20038;-77
2023/05/31 07:02:43;;;;;;;13.23;6.55;;;;;;;;;;4986095;28;20037;-74
2023/05/31 07:05:08;;;;;;;13.02;7.63;;;;;;;;;;4972361;28;20031;-75
2023/05/31 07:07:33;;;;;;;11.68;6.63;;;;;;;;;;4983251;28;20030;-75
2023/05/31 07:09:59;;;;;;;11.25;6.75;;;;;;;;;;4995339;28;20034;-74
2023/05/31 07:12:24;;;;;;;10.63;6.22;;;;;;;;;;4987667;28;20023;-74
2023/05/31 07:14:50;;;;;;;12.25;6.53;;;;;;;;;;4975276;28;20031;-75
2023/05/31 07:17:15;;;;;;;11.57;6.25;;;;;;;;;;4989340;28;20399;-76
2023/05/31 07:19:48;;;;;;;12.23;7.45;;;;;;;;;;4973124;28;20023;-75
2023/05/31 07:22:17;;;;;;;11.43;6.40;;;;;;;;;;4995990;28;20112;-75
2023/05/31 07:24:43;;;;;;;10.60;6.25;;;;;;;;;;4995471;28;20332;-76
2023/05/31 07:27:10;;;;;;;9.85;5.70;;;;;;;;;;4988587;28;20621;-74
2023/05/31 07:29:36;;;;;;;12.13;6.50;;;;;;;;;;4997058;28;20050;-75
2023/05/31 07:32:01;;;;;;;12.30;6.07;;;;;;;;;;4992722;28;20030;-74
2023/05/31 07:34:26;;;;;;;12.90;6.38;;;;;;;;;;4976620;28;20034;-75
2023/05/31 07:36:52;;;;;;;11.13;6.57;;;;;;;;;;4974235;28;20037;-74
2023/05/31 07:39:18;;;;;;;10.50;6.18;;;;;;;;;;4997629;28;20018;-75
2023/05/31 07:41:43;;;;;;;13.27;6.80;;;;;;;;;;4992321;28;20022;-75
2023/05/31 07:44:09;;;;;;;13.13;6.45;;;;;;;;;;4992803;28;20092;-75
2023/05/31 07:46:35;;;;;;;11.05;6.28;;;;;;;;;;4993829;28;20036;-75
2023/05/31 07:49:01;;;;;;;11.70;6.30;;;;;;;;;;4988212;28;20113;-74
2023/05/31 07:51:30;;;;;;;10.15;6.13;;;;;;;;;;5001197;28;20114;-74
2023/05/31 07:53:56;;;;;;;12.55;6.55;;;;;;;;;;5001688;28;20030;-74
2023/05/31 07:56:22;;;;;;;11.65;5.65;;;;;;;;;;4982412;28;20024;-75
2023/05/31 07:58:47;;;;;;;9.90;5.72;;;;;;;;;;4993335;28;20030;-76
2023/05/31 08:01:13;;;;;;;12.90;6.05;;;;;;;;;;4980009;28;20112;-75
2023/05/31 08:03:38;;;;;;;11.63;5.90;;;;;;;;;;4988019;28;20057;-74
2023/05/31 08:06:04;;;;;;;10.02;5.78;;;;;;;;;;5001005;28;20070;-74
2023/05/31 08:08:32;;;;;;;9.07;5.07;;;;;;;;;;5004627;28;20041;-75
2023/05/31 08:10:58;;;;;;;9.77;5.28;;;;;;;;;;4996973;28;20026;-75
2023/05/31 08:13:24;;;;;;;11.82;5.80;;;;;;;;;;4996270;28;20561;-75
2023/05/31 08:15:49;;;;;;;8.73;5.35;;;;;;;;;;4974810;28;20026;-75
2023/05/31 08:18:15;;;;;;;8.65;5.03;;;;;;;;;;4990969;28;20026;-75
2023/05/31 08:20:41;;;;;;;11.95;5.03;;;;;;;;;;4993710;28;20022;-74
2023/05/31 08:23:07;;;;;;;9.85;5.32;;;;;;;;;;4975944;28;20042;-75
2023/05/31 08:25:32;;;;;;;10.10;4.95;;;;;;;;;;4979118;28;20022;-75
2023/05/31 08:27:58;;;;;;;12.55;5.47;;;;;;;;;;4999063;28;20022;-75
2023/05/31 08:30:23;;;;;;;10.88;5.05;;;;;;;;;;4979985;28;20031;-75
2023/05/31 08:32:48;;;;;;;7.13;4.15;;;;;;;;;;4975288;28;20034;-75
2023/05/31 08:35:14;;;;;;;9.70;4.38;;;;;;;;;;4993893;28;20145;-75
2023/05/31 08:37:40;;;;;;;9.02;4.95;;;;;;;;;;4985294;28;20080;-75
2023/05/31 08:40:06;;;;;;;10.98;4.40;;;;;;;;;;4995310;28;20471;-75
2023/05/31 08:42:40;;;;;;;6.80;4.35;;;;;;;;;;4993215;28;20061;-75
2023/05/31 08:45:06;;;;;;;9.50;4.40;;;;;;;;;;4976260;28;20691;-76
2023/05/31 08:47:38;;;;;;;7.82;4.40;;;;;;;;;;4995312;28;20029;-75
2023/05/31 08:50:04;;;;;;;7.97;4.18;;;;;;;;;;4974168;28;20026;-76
2023/05/31 08:52:31;;;;;;;11.80;3.80;;;;;;;;;;4988271;28;20022;-75
2023/05/31 08:54:58;;;;;;;9.68;4.50;;;;;;;;;;4991144;28;20421;-74
2023/05/31 08:57:24;;;;;;;7.63;4.20;;;;;;;;;;4978472;28;20089;-75
2023/05/31 08:59:50;;;;;;;7.95;3.85;;;;;;;;;;4990520;28;20653;-75
2023/05/31 09:02:16;;;;;;;8.60;3.70;;;;;;;;;;4996098;28;20120;-76
2023/05/31 09:04:43;;;;;;;6.43;3.67;;;;;;;;;;4977286;28;20029;-75
2023/05/31 09:07:08;;;;;;;9.60;4.18;;;;;;;;;;4991139;28;20402;-76
2023/05/31 09:09:33;;;;;;;10.05;3.90;;;;;;;;;;4975025;28;20022;-75
2023/05/31 09:12:00;;;;;;;6.18;3.08;;;;;;;;;;4977349;28;20034;-76
2023/05/31 09:14:26;;;;;;;9.15;3.28;;;;;;;;;;4981771;28;20022;-75
2023/05/31 09:16:52;;;;;;;8.75;3.63;;;;;;;;;;4995817;28;20474;-75
2023/05/31 09:19:17;;;;;;;8.70;3.50;;;;;;;;;;4996321;28;20027;-75
2023/05/31 09:21:44;;;;;;;7.72;3.30;;;;;;;;;;4992762;28;20490;-75
2023/05/31 09:24:10;;;;;;;7.80;3.20;;;;;;;;;;4975452;28;20030;-75
2023/05/31 09:26:46;;;;;;;7.15;2.85;;;;;;;;;;4994600;28;20089;-76
2023/05/31 09:29:11;;;;;;;7.15;2.90;;;;;;;;;;4994440;28;20026;-76
2023/05/31 09:31:37;;;;;;;6.22;3.25;;;;;;;;;;4991682;28;20459;-76
2023/05/31 09:34:02;;;;;;;8.43;2.83;;;;;;;;;;4993836;28;20395;-76
2023/05/31 09:36:30;;;;;;;5.95;2.65;;;;;;;;;;4988460;28;20053;-76
2023/05/31 09:39:09;;;;;;;5.60;2.63;;;;;;;;;;4994472;28;20022;-76
2023/05/31 09:41:35;;;;;;;7.47;3.40;;;;;;;;;;4989053;28;20026;-76
2023/05/31 09:44:00;;;;;;;8.10;2.85;;;;;;;;;;4994012;28;20034;-76
2023/05/31 09:46:26;;;;;;;6.05;2.88;;;;;;;;;;4991602;28;20422;-76
2023/05/31 09:49:03;;;;;;;7.85;2.83;;;;;;;;;;4975126;28;20084;-76
2023/05/31 09:51:32;;;;;;;5.22;2.75;;;;;;;;;;4965254;28;20053;-76
2023/05/31 09:53:59;;;;;;;6.25;2.80;;;;;;;;;;4986498;28;20059;-76
2023/05/31 09:56:27;;;;;;;6.75;2.35;;;;;;;;;;4974807;28;20455;-76
2023/05/31 09:58:56;;;;;;;5.32;2.40;;;;;;;;;;4989786;28;20109;-76
2023/05/31 10:01:21;;;;;;;6.45;2.50;;;;;;;;;;4977186;28;20022;-76
2023/05/31 10:03:50;;;;;;;8.25;2.50;;;;;;;;;;4976209;28;20033;-76
2023/05/31 10:06:17;;;;;;;7.38;2.55;;;;;;;;;;4975349;28;20029;-76
2023/05/31 10:08:47;;;;;;;5.97;2.28;;;;;;;;;;4976738;28;20084;-77
2023/05/31 10:11:16;;;;;;;4.72;1.83;;;;;;;;;;4975387;28;20054;-75
2023/05/31 10:13:44;;;;;;;5.10;2.00;;;;;;;;;;4975788;28;20026;-75
2023/05/31 10:16:10;;;;;;;5.20;1.80;;;;;;;;;;4975808;28;20164;-75
2023/05/31 10:18:45;;;;;;;4.07;1.65;;;;;;;;;;4974750;28;20033;-75
2023/05/31 10:21:22;;;;;;;4.80;1.75;;;;;;;;;;4990248;28;20541;-76
2023/05/31 10:23:51;;;;;;;5.63;1.90;;;;;;;;;;4968695;28;20387;-76
2023/05/31 10:26:18;;;;;;;6.40;1.88;;;;;;;;;;4991405;28;20314;-75
2023/05/31 10:29:16;;;;;;;4.13;1.35;;;;;;;;;;4993708;28;20049;-76
2023/05/31 10:31:47;;;;;;;5.00;1.40;;;;;;;;;;4973990;28;20034;-76
2023/05/31 10:34:23;;;;;;;4.80;1.52;;;;;;;;;;4994086;28;20077;-75
2023/05/31 10:36:53;;;;;;;6.25;1.80;;;;;;;;;;4972083;28;20029;-75
2023/05/31 10:39:52;;;;;;;4.68;1.80;;;;;;;;;;4974178;28;20026;-75
2023/05/31 10:42:35;;;;;;;4.32;1.80;;;;;;;;;;4987612;28;20038;-76
2023/05/31 10:45:15;;;;;;;4.05;1.88;;;;;;;;;;4974151;28;20033;-76
2023/05/31 10:47:54;;;;;;;6.32;2.08;;;;;;;;;;4978501;28;20082;-75
2023/05/31 10:50:20;;;;;;;5.38;1.83;;;;;;;;;;4989162;28;20072;-76
2023/05/31 10:52:52;;;;;;;7.30;2.08;;;;;;;;;;4973981;28;20505;-76
2023/05/31 10:55:24;;;;;;;4.55;1.88;;;;;;;;;;4969377;28;20030;-76
2023/05/31 10:57:53;;;;;;;5.60;1.63;;;;;;;;;;4974312;28;20044;-76
2023/05/31 11:00:20;;;;;;;4.38;1.73;;;;;;;;;;4989646;28;20748;-76
2023/05/31 11:02:49;;;;;;;5.95;1.88;;;;;;;;;;4987291;28;20065;-76
2023/05/31 11:05:19;;;;;;;6.25;1.67;;;;;;;;;;4974786;28;20267;-76
2023/05/31 11:07:45;;;;;;;5.90;1.90;;;;;;;;;;4991242;28;20022;-76
2023/05/31 11:10:24;;;;;;;5.35;1.45;;;;;;;;;;4986939;28;20027;-76
2023/05/31 11:12:49;;;;;;;5.18;2.22;;;;;;;;;;4993444;28;20101;-76
2023/05/31 11:15:15;;;;;;;5.57;1.73;;;;;;;;;;4980582;28;20023;-76
2023/05/31 11:17:56;;;;;;;6.72;2.03;;;;;;;;;;4998990;28;20030;-76
2023/05/31 11:20:25;;;;;;;5.32;1.90;;;;;;;;;;4995260;28;20110;-76
2023/05/31 11:23:19;;;;;;;7.22;1.83;;;;;;;;;;4977525;28;20058;-76
2023/05/31 11:26:04;;;;;;;5.38;1.90;;;;;;;;;;4984551;28;20026;-76
2023/05/31 11:28:31;;;;;;;6.50;1.83;;;;;;;;;;4992467;28;20116;-76
2023/05/31 11:30:56;;;;;;;3.30;1.40;;;;;;;;;;4993847;28;20030;-76
2023/05/31 11:33:23;;;;;;;6.13;1.73;;;;;;;;;;4996275;28;20029;-76
2023/05/31 11:35:48;;;;;;;3.40;1.98;;;;;;;;;;4989571;28;20037;-75
2023/05/31 11:38:15;;;;;;;4.22;1.48;;;;;;;;;;4995883;28;20038;-75
2023/05/31 11:40:40;;;;;;;7.07;1.90;;;;;;;;;;4991983;28;20438;-76
2023/05/31 11:43:07;;;;;;;5.32;1.80;;;;;;;;;;4994471;28;20119;-76
2023/05/31 11:45:34;;;;;;;5.05;1.85;;;;;;;;;;4983661;28;20026;-76
2023/05/31 11:48:28;;;;;;;5.40;1.50;;;;;;;;;;4995811;28;20037;-76
2023/05/31 11:50:54;;;;;;;3.67;1.70;;;;;;;;;;4996505;28;20109;-77
2023/05/31 11:53:20;;;;;;;4.55;1.35;;;;;;;;;;4999996;28;20030;-76
2023/05/31 11:55:48;;;;;;;4.97;1.83;;;;;;;;;;4973321;28;20109;-75
2023/05/31 11:58:14;;;;;;;4.57;1.88;;;;;;;;;;4974070;28;20391;-74
2023/05/31 12:00:45;;;;;;;6.78;1.80;;;;;;;;;;4997044;28;20030;-75
2023/05/31 12:03:14;;;;;;;6.80;1.80;;;;;;;;;;4994837;28;20047;-76
2023/05/31 12:05:40;;;;;;;4.80;1.75;;;;;;;;;;4995008;28;20471;-75
2023/05/31 12:08:09;;;;;;;6.10;1.80;;;;;;;;;;4973483;28;20121;-75
2023/05/31 12:10:35;;;;;;;5.35;1.90;;;;;;;;;;4998046;28;20105;-76
2023/05/31 12:13:00;;;;;;;3.85;1.70;;;;;;;;;;4995653;28;20061;-75
2023/05/31 12:15:29;;;;;;;6.13;2.38;;;;;;;;;;4995693;28;20022;-75
2023/05/31 12:18:00;;;;;;;5.90;1.85;;;;;;;;;;4994807;28;20368;-76
2023/05/31 12:20:29;;;;;;;5.32;2.15;;;;;;;;;;4995881;28;20033;-75
2023/05/31 12:23:12;;;;;;;7.57;2.25;;;;;;;;;;4994465;28;20038;-76
2023/05/31 12:25:42;;;;;;;6.00;2.10;;;;;;;;;;4993129;28;20037;-75
2023/05/31 12:28:08;;;;;;;6.72;1.85;;;;;;;;;;4974683;28;20395;-75
2023/05/31 12:30:33;;;;;;;4.97;1.80;;;;;;;;;;4989419;28;20019;-75
2023/05/31 12:32:58;;;;;;;5.68;2.10;;;;;;;;;;4985771;28;20038;-75
2023/05/31 12:35:25;;;;;;;8.13;2.00;;;;;;;;;;4977284;28;20038;-75
2023/05/31 12:37:50;;;;;;;6.45;2.30;;;;;;;;;;4989829;28;20042;-75
2023/05/31 12:40:22;;;;;;;3.80;1.67;;;;;;;;;;4977125;28;20041;-75
2023/05/31 12:42:47;;;;;;;3.97;1.90;;;;;;;;;;4992304;28;20395;-76
2023/05/31 12:45:17;;;;;;;5.75;2.03;;;;;;;;;;4994266;28;20030;-76
2023/05/31 12:47:43;;;;;;;5.75;1.85;;;;;;;;;;4994092;28;20049;-76
2023/05/31 12:50:08;;;;;;;7.68;1.92;;;;;;;;;;4990394;28;20069;-76
2023/05/31 12:52:35;;;;;;;6.43;2.03;;;;;;;;;;4988920;28;20034;-76
2023/05/31 12:55:04;;;;;;;4.55;2.00;;;;;;;;;;4990298;28;20022;-75
2023/05/31 12:57:30;;;;;;;5.85;2.10;;;;;;;;;;4987712;28;20033;-75
2023/05/31 13:00:11;;;;;;;6.68;2.03;;;;;;;;;;4972264;28;20077;-77
2023/05/31 13:02:40;;;;;;;4.97;2.00;;;;;;;;;;4979766;28;20041;-77
2023/05/31 13:05:06;;;;;;;6.13;2.10;;;;;;;;;;5001938;28;20402;-76
2023/05/31 13:07:36;;;;;;;5.93;2.05;;;;;;;;;;4995978;28;20049;-76
2023/05/31 13:10:07;;;;;;;5.47;1.70;;;;;;;;;;4995161;28;20030;-76
2023/05/31 13:12:32;;;;;;;6.47;2.00;;;;;;;;;;4995886;28;20141;-75
2023/05/31 13:14:58;;;;;;;6.35;2.00;;;;;;;;;;4978022;28;20053;-75
2023/05/31 13:17:23;;;;;;;5.95;2.15;;;;;;;;;;4988950;28;20057;-75
2023/05/31 13:19:49;;;;;;;6.50;2.00;;;;;;;;;;4978387;28;20019;-75
2023/05/31 13:22:14;;;;;;;9.35;2.20;;;;;;;;;;4977368;28;20498;-76
2023/05/31 13:24:40;;;;;;;5.35;1.90;;;;;;;;;;4977223;28;20035;-76
2023/05/31 13:27:07;;;;;;;5.80;1.95;;;;;;;;;;5000312;28;20393;-78
2023/05/31 13:29:32;;;;;;;4.68;1.90;;;;;;;;;;4979674;28;20018;-76
2023/05/31 13:31:58;;;;;;;5.13;1.77;;;;;;;;;;4998798;28;20437;-76
2023/05/31 13:34:23;;;;;;;5.32;1.98;;;;;;;;;;4981650;28;20463;-78
2023/05/31 13:36:49;;;;;;;4.78;2.00;;;;;;;;;;4989043;28;20395;-76
2023/05/31 13:39:14;;;;;;;5.22;2.20;;;;;;;;;;4991575;28;20030;-76
2023/05/31 13:41:44;;;;;;;6.93;2.10;;;;;;;;;;4992644;28;20471;-77
2023/05/31 13:44:11;;;;;;;4.97;2.08;;;;;;;;;;4978465;28;20518;-75
2023/05/31 13:46:36;;;;;;;5.65;2.35;;;;;;;;;;4975471;28;20221;-76
2023/05/31 13:49:02;;;;;;;5.03;2.15;;;;;;;;;;4997474;28;20034;-77
2023/05/31 13:51:28;;;;;;;5.15;2.20;;;;;;;;;;4973085;28;20026;-76
2023/05/31 13:53:53;;;;;;;5.35;2.22;;;;;;;;;;4993154;28;20034;-76
2023/05/31 13:56:18;;;;;;;7.03;2.05;;;;;;;;;;4975684;28;20567;-76
2023/05/31 13:58:44;;;;;;;6.78;3.03;;;;;;;;;;4996593;28;20034;-75
2023/05/31 14:01:09;;;;;;;7.32;2.40;;;;;;;;;;4972804;28;20026;-79
2023/05/31 14:03:36;;;;;;;5.20;2.00;;;;;;;;;;4999381;28;20113;-78
2023/05/31 14:06:01;;;;;;;6.22;2.30;;;;;;;;;;4975920;28;20022;-79
2023/05/31 14:08:27;;;;;;;7.03;2.10;;;;;;;;;;5001242;28;20395;-79
2023/05/31 14:10:52;;;;;;;5.90;2.47;;;;;;;;;;5003133;28;20363;-78
2023/05/31 14:13:18;;;;;;;6.38;2.30;;;;;;;;;;5005221;28;20150;-78
2023/05/31 14:15:44;;;;;;;4.25;2.13;;;;;;;;;;4995873;28;20168;-78
2023/05/31 14:18:10;;;;;;;7.35;2.58;;;;;;;;;;5001003;28;20447;-78
2023/05/31 14:20:35;;;;;;;6.32;2.35;;;;;;;;;;4978023;28;20056;-78
2023/05/31 14:23:02;;;;;;;6.25;2.10;;;;;;;;;;4977075;28;20129;-79
2023/05/31 14:25:28;;;;;;;9.23;2.42;;;;;;;;;;4986771;28;20453;-78
2023/05/31 14:27:53;;;;;;;4.43;1.92;;;;;;;;;;4987821;28;20130;-78
2023/05/31 14:30:18;;;;;;;6.40;2.20;;;;;;;;;;4967371;28;20041;-79
2023/05/31 14:32:44;;;;;;;5.55;1.95;;;;;;;;;;4996598;28;20600;-79
2023/05/31 14:35:17;;;;;;;4.38;2.38;;;;;;;;;;4975403;28;20533;-79
2023/05/31 14:37:42;;;;;;;5.82;2.22;;;;;;;;;;4974097;28;20025;-79
2023/05/31 14:40:08;;;;;;;5.68;2.10;;;;;;;;;;4974063;28;20530;-78